Time;durP1;ratioP1;P1;durP2;ratioP2;P2;SDS_P1;SDS_P2;PMS_P1;PMS_P2;Temp;Humidity;BMP_temperature;BMP_pressure;BME280_temperature;BME280_humidity;BME280_pressure;Samples;Min_cycle;Max_cycle;Signal;HPM_P1;HPM_P2
2022/11/22 00:00:38;;;;;;;54.28;25.45;;;2.40;99.90;;;;;;5054415;28;20120;-33
2022/11/22 00:03:04;;;;;;;57.85;25.00;;;2.40;99.90;;;;;;5055392;28;20045;-33
2022/11/22 00:05:30;;;;;;;56.05;25.42;;;2.40;99.90;;;;;;5054398;28;20136;-32
2022/11/22 00:07:55;;;;;;;57.25;26.00;;;2.50;99.90;;;;;;5052647;28;20127;-33
2022/11/22 00:10:21;;;;;;;54.22;25.23;;;2.50;99.90;;;;;;5053829;28;20041;-33
2022/11/22 00:12:47;;;;;;;48.30;23.70;;;2.50;99.90;;;;;;5053762;28;20514;-32
2022/11/22 00:15:13;;;;;;;50.53;25.17;;;2.50;99.90;;;;;;5053750;28;20092;-32
2022/11/22 00:17:39;;;;;;;55.08;24.75;;;2.50;99.90;;;;;;5053612;28;20056;-33
2022/11/22 00:20:06;;;;;;;50.15;23.85;;;2.50;99.90;;;;;;5050176;28;20049;-33
2022/11/22 00:22:32;;;;;;;58.50;26.23;;;2.50;99.90;;;;;;5034300;28;20053;-34
2022/11/22 00:24:58;;;;;;;57.83;26.38;;;2.50;99.90;;;;;;5033749;28;20045;-33
2022/11/22 00:27:24;;;;;;;56.55;27.30;;;2.50;99.90;;;;;;5033001;28;20050;-34
2022/11/22 00:29:50;;;;;;;56.30;26.05;;;2.50;99.90;;;;;;5037060;28;20052;-35
2022/11/22 00:32:16;;;;;;;58.45;26.17;;;2.50;99.90;;;;;;5053569;28;20041;-33
2022/11/22 00:34:41;;;;;;;54.90;24.80;;;2.50;99.90;;;;;;5086374;28;20104;-34
2022/11/22 00:37:07;;;;;;;55.90;25.27;;;2.60;99.90;;;;;;5053583;28;20084;-34
2022/11/22 00:39:33;;;;;;;52.05;25.55;;;2.50;99.90;;;;;;5053678;28;20048;-33
2022/11/22 00:41:59;;;;;;;52.72;25.30;;;2.50;99.90;;;;;;5053487;28;20048;-34
2022/11/22 00:44:25;;;;;;;58.55;25.30;;;2.40;99.90;;;;;;5052738;28;20384;-33
2022/11/22 00:46:50;;;;;;;51.83;24.45;;;2.40;99.90;;;;;;5041974;28;20041;-34
2022/11/22 00:49:16;;;;;;;44.20;23.40;;;2.40;99.90;;;;;;5036062;28;20080;-33
2022/11/22 00:51:42;;;;;;;52.40;24.30;;;2.40;99.90;;;;;;5037548;28;20476;-34
2022/11/22 00:54:08;;;;;;;49.63;23.50;;;2.40;99.90;;;;;;5047224;28;20124;-35
2022/11/22 00:56:34;;;;;;;51.90;25.02;;;2.50;99.90;;;;;;5037472;28;20144;-34
2022/11/22 00:59:00;;;;;;;50.67;23.40;;;2.40;99.90;;;;;;5053173;28;20064;-33
2022/11/22 01:01:26;;;;;;;50.67;24.13;;;2.50;99.90;;;;;;5054387;28;20124;-33
2022/11/22 01:03:52;;;;;;;53.97;25.03;;;2.40;99.90;;;;;;5058298;28;20137;-33
2022/11/22 01:06:18;;;;;;;53.20;26.40;;;2.40;99.90;;;;;;5043647;28;20506;-33
2022/11/22 01:08:44;;;;;;;47.78;22.48;;;2.40;99.90;;;;;;5035796;28;20504;-33
2022/11/22 01:11:10;;;;;;;52.78;25.42;;;2.40;99.90;;;;;;5036501;28;20088;-33
2022/11/22 01:13:35;;;;;;;47.28;23.02;;;2.40;99.90;;;;;;5036832;28;20423;-34
2022/11/22 01:16:04;;;;;;;51.42;25.67;;;2.70;99.90;;;;;;5052975;28;20044;-34
2022/11/22 01:18:30;;;;;;;48.95;24.75;;;2.30;99.90;;;;;;5057254;28;20053;-35
2022/11/22 01:20:55;;;;;;;45.43;23.00;;;2.30;99.90;;;;;;5056919;28;20383;-33
2022/11/22 01:23:21;;;;;;;47.22;23.42;;;2.40;99.90;;;;;;5056925;28;20110;-33
2022/11/22 01:25:47;;;;;;;47.97;23.37;;;2.30;99.90;;;;;;5056715;28;20474;-33
2022/11/22 01:28:13;;;;;;;51.97;24.25;;;2.30;99.90;;;;;;5056812;28;20049;-34
2022/11/22 01:30:40;;;;;;;53.15;24.70;;;2.30;99.90;;;;;;5056591;28;20041;-33
2022/11/22 01:33:06;;;;;;;61.30;26.55;;;2.30;99.90;;;;;;5055537;28;20133;-33
2022/11/22 01:35:32;;;;;;;57.88;24.83;;;2.50;99.90;;;;;;5090118;28;20072;-33
2022/11/22 01:37:58;;;;;;;54.45;25.63;;;2.40;99.90;;;;;;5057368;28;20513;-33
2022/11/22 01:40:23;;;;;;;58.88;26.50;;;2.30;99.90;;;;;;5046815;28;20041;-35
2022/11/22 01:42:52;;;;;;;65.18;28.38;;;2.30;99.90;;;;;;5056480;28;20049;-33
2022/11/22 01:45:30;;;;;;;58.50;27.10;;;2.30;99.90;;;;;;5036630;28;20049;-33
2022/11/22 01:48:12;;;;;;;69.10;30.35;;;2.30;99.90;;;;;;5035421;28;20050;-33
2022/11/22 01:50:42;;;;;;;61.53;27.65;;;2.30;99.90;;;;;;5036472;28;20077;-34
2022/11/22 01:53:40;;;;;;;63.08;28.35;;;2.30;99.90;;;;;;5071057;28;20188;-34
2022/11/22 01:56:12;;;;;;;62.08;26.80;;;2.30;99.90;;;;;;5035850;28;20057;-33
2022/11/22 01:58:39;;;;;;;62.38;27.55;;;2.30;99.90;;;;;;5035873;28;20499;-34
2022/11/22 02:01:06;;;;;;;66.95;28.35;;;2.30;99.90;;;;;;5052398;28;20049;-33
2022/11/22 02:03:33;;;;;;;57.42;26.67;;;2.30;99.90;;;;;;5036498;28;20072;-34
2022/11/22 02:05:59;;;;;;;56.63;27.98;;;2.30;99.90;;;;;;5036202;28;20056;-36
2022/11/22 02:08:54;;;;;;;56.05;25.40;;;2.30;99.90;;;;;;5055236;28;20059;-33
2022/11/22 02:11:21;;;;;;;66.03;28.60;;;2.40;99.90;;;;;;5054500;28;20045;-34
2022/11/22 02:13:50;;;;;;;66.80;28.30;;;2.40;99.90;;;;;;5045637;28;20426;-34
2022/11/22 02:16:16;;;;;;;70.57;30.25;;;2.40;99.90;;;;;;5069141;28;20486;-34
2022/11/22 02:18:41;;;;;;;64.75;29.60;;;2.30;99.90;;;;;;5035966;28;20041;-33
2022/11/22 02:21:08;;;;;;;71.13;31.10;;;2.30;99.90;;;;;;5068339;28;20045;-33
2022/11/22 02:23:43;;;;;;;70.32;29.33;;;2.40;99.90;;;;;;5056980;28;20080;-33
2022/11/22 02:26:08;;;;;;;61.58;29.23;;;2.30;99.90;;;;;;5056657;28;20081;-33
2022/11/22 02:28:37;;;;;;;78.55;31.80;;;2.40;99.90;;;;;;5056501;28;20501;-33
2022/11/22 02:31:03;;;;;;;67.68;29.15;;;2.40;99.90;;;;;;5055658;28;20080;-33
2022/11/22 02:33:28;;;;;;;64.03;28.98;;;2.40;99.90;;;;;;5054996;28;20157;-33
2022/11/22 02:35:55;;;;;;;65.18;28.90;;;2.40;99.90;;;;;;5054389;28;20049;-34
2022/11/22 02:38:24;;;;;;;66.18;28.52;;;2.40;99.90;;;;;;5053158;28;20395;-33
2022/11/22 02:40:52;;;;;;;70.80;30.33;;;2.50;99.90;;;;;;5035707;28;20510;-34
2022/11/22 02:43:21;;;;;;;63.75;28.48;;;2.50;99.90;;;;;;5036317;28;20041;-33
2022/11/22 02:45:47;;;;;;;65.72;29.83;;;2.50;99.90;;;;;;5042089;28;20123;-34
2022/11/22 02:48:15;;;;;;;63.42;28.50;;;2.70;99.90;;;;;;5036921;28;20120;-34
2022/11/22 02:50:42;;;;;;;72.45;29.98;;;2.50;99.90;;;;;;5035388;28;20136;-34
2022/11/22 02:53:09;;;;;;;74.18;29.38;;;2.50;99.90;;;;;;5053909;28;20045;-35
2022/11/22 02:55:35;;;;;;;63.83;28.10;;;2.50;99.90;;;;;;5054877;28;20128;-35
2022/11/22 02:58:01;;;;;;;74.05;30.95;;;2.50;99.90;;;;;;5055150;28;20088;-36
2022/11/22 03:00:27;;;;;;;67.47;29.42;;;2.60;99.90;;;;;;5055034;28;20073;-35
2022/11/22 03:02:53;;;;;;;66.10;29.67;;;2.50;99.90;;;;;;5055304;28;20045;-35
2022/11/22 03:05:19;;;;;;;65.25;28.40;;;2.60;99.90;;;;;;5053879;28;20075;-37
2022/11/22 03:07:44;;;;;;;71.82;30.23;;;2.60;99.90;;;;;;5057103;28;20085;-34
2022/11/22 03:10:10;;;;;;;63.33;28.92;;;2.70;99.90;;;;;;5053965;28;20087;-36
2022/11/22 03:12:36;;;;;;;74.53;30.70;;;2.60;99.90;;;;;;5054844;28;20137;-37
2022/11/22 03:15:02;;;;;;;64.97;27.67;;;2.60;99.90;;;;;;5054751;28;20052;-33
2022/11/22 03:17:27;;;;;;;73.03;30.25;;;2.60;99.90;;;;;;5054466;28;20474;-34
2022/11/22 03:19:53;;;;;;;69.75;30.42;;;2.60;99.90;;;;;;5054413;28;20045;-34
2022/11/22 03:22:19;;;;;;;61.88;28.30;;;2.80;99.90;;;;;;5054021;28;20387;-35
2022/11/22 03:24:44;;;;;;;71.88;29.30;;;2.70;99.90;;;;;;5087101;28;20052;-33
2022/11/22 03:27:10;;;;;;;66.53;28.65;;;2.60;99.90;;;;;;5054027;28;20509;-36
2022/11/22 03:29:36;;;;;;;64.47;29.25;;;2.60;99.90;;;;;;5039089;28;20087;-34
2022/11/22 03:32:01;;;;;;;59.90;28.50;;;2.70;99.90;;;;;;5049204;28;20045;-37
2022/11/22 03:34:27;;;;;;;69.60;30.77;;;2.70;99.90;;;;;;5034374;28;20057;-34
2022/11/22 03:36:53;;;;;;;72.65;30.52;;;2.70;99.90;;;;;;5033520;28;20055;-34
2022/11/22 03:39:18;;;;;;;58.50;26.83;;;2.70;99.90;;;;;;5034637;28;20049;-34
2022/11/22 03:41:44;;;;;;;63.25;27.48;;;2.70;99.90;;;;;;5050057;28;20540;-34
2022/11/22 03:44:09;;;;;;;60.60;28.15;;;2.80;99.90;;;;;;5034344;28;20454;-34
2022/11/22 03:46:35;;;;;;;60.53;28.33;;;2.80;99.90;;;;;;5052952;28;20560;-34
2022/11/22 03:49:01;;;;;;;63.13;28.98;;;2.70;99.90;;;;;;5054233;28;20072;-34
2022/11/22 03:51:27;;;;;;;62.13;28.42;;;2.80;99.90;;;;;;5054407;28;20056;-34
2022/11/22 03:53:53;;;;;;;62.28;28.70;;;2.80;99.90;;;;;;5048210;28;20049;-34
2022/11/22 03:56:18;;;;;;;61.08;29.17;;;2.80;99.90;;;;;;5033171;28;20052;-34
2022/11/22 03:58:44;;;;;;;64.45;28.80;;;2.80;99.90;;;;;;5034068;28;20050;-34
2022/11/22 04:01:09;;;;;;;69.00;29.65;;;2.80;99.90;;;;;;5058486;28;20087;-34
2022/11/22 04:03:35;;;;;;;66.68;28.73;;;2.80;99.90;;;;;;5072437;28;20040;-34
2022/11/22 04:06:01;;;;;;;63.60;28.50;;;2.80;99.90;;;;;;5073896;28;20101;-35
2022/11/22 04:08:26;;;;;;;65.40;29.48;;;2.80;99.90;;;;;;5072679;28;20044;-35
2022/11/22 04:10:52;;;;;;;65.90;29.70;;;2.90;99.90;;;;;;5074427;28;20040;-38
2022/11/22 04:13:19;;;;;;;61.75;28.90;;;2.90;99.90;;;;;;5056011;28;20175;-35
2022/11/22 04:15:44;;;;;;;60.47;28.80;;;2.90;99.90;;;;;;5032592;28;20051;-37
2022/11/22 04:18:11;;;;;;;59.17;27.65;;;2.90;99.90;;;;;;5033829;28;20132;-36
2022/11/22 04:23:23;;;;;;;64.82;28.48;;;2.90;99.90;;;;;;5047381;28;20519;-38
2022/11/22 04:25:51;;;;;;;62.15;28.35;;;2.90;99.90;;;;;;5033745;28;20053;-35
2022/11/22 04:28:21;;;;;;;56.95;27.35;;;2.90;99.90;;;;;;5051418;28;20059;-36
2022/11/22 04:33:32;;;;;;;59.35;26.75;;;3.00;99.90;;;;;;5053613;28;20097;-38
2022/11/22 04:35:58;;;;;;;60.83;27.83;;;2.90;99.90;;;;;;5053524;28;20049;-36
2022/11/22 04:38:24;;;;;;;61.00;27.55;;;2.90;99.90;;;;;;5053548;28;20128;-38
2022/11/22 04:40:50;;;;;;;59.30;27.20;;;3.00;99.90;;;;;;5053470;28;20099;-38
2022/11/22 04:46:07;;;;;;;61.55;28.63;;;3.00;99.90;;;;;;5053558;28;20064;-37
2022/11/22 04:48:34;;;;;;;63.83;29.30;;;3.00;99.90;;;;;;5038850;28;20053;-39
2022/11/22 04:53:44;;;;;;;76.18;31.02;;;3.00;99.90;;;;;;5032775;28;20060;-39
2022/11/22 04:56:11;;;;;;;63.97;28.55;;;3.00;99.90;;;;;;5037456;28;20058;-39
2022/11/22 04:58:36;;;;;;;61.90;29.08;;;3.10;99.90;;;;;;5053342;28;20048;-40
2022/11/22 05:01:02;;;;;;;64.93;29.95;;;3.10;99.90;;;;;;5035557;28;20049;-39
2022/11/22 05:03:28;;;;;;;62.70;30.17;;;3.30;99.90;;;;;;5052135;28;20402;-38
2022/11/22 05:05:53;;;;;;;60.25;27.50;;;3.20;99.90;;;;;;5054099;28;20124;-41
2022/11/22 05:08:19;;;;;;;56.10;29.33;;;3.20;99.90;;;;;;5035685;28;20045;-41
2022/11/22 05:10:56;;;;;;;62.40;27.83;;;3.30;99.90;;;;;;5085503;28;20102;-42
2022/11/22 05:13:34;;;;;;;64.85;30.38;;;3.20;99.90;;;;;;5033263;28;20057;-41
2022/11/22 05:16:02;;;;;;;58.17;27.67;;;3.30;99.90;;;;;;5032875;28;20045;-42
2022/11/22 05:18:29;;;;;;;66.78;29.77;;;3.30;99.90;;;;;;5048768;28;20135;-41
2022/11/22 05:20:55;;;;;;;64.18;29.25;;;3.40;99.90;;;;;;5050240;28;20447;-41
2022/11/22 05:26:07;;;;;;;64.22;29.50;;;3.40;99.90;;;;;;5053607;28;20107;-41
2022/11/22 05:28:35;;;;;;;59.33;30.52;;;3.30;99.90;;;;;;5049137;28;20115;-41
2022/11/22 05:31:09;;;;;;;63.63;30.00;;;3.40;99.90;;;;;;5033137;28;20103;-41
2022/11/22 05:33:36;;;;;;;57.28;28.90;;;3.30;99.90;;;;;;5067103;28;20049;-42
2022/11/22 05:36:03;;;;;;;67.35;29.73;;;3.50;99.90;;;;;;5036789;28;20491;-42
2022/11/22 05:38:29;;;;;;;69.90;30.08;;;3.50;99.90;;;;;;5036731;28;20056;-41
2022/11/22 05:40:54;;;;;;;61.80;29.20;;;3.40;99.90;;;;;;5042155;28;20048;-42
2022/11/22 05:43:20;;;;;;;65.15;29.92;;;3.50;99.90;;;;;;5052254;28;20049;-41
2022/11/22 05:45:46;;;;;;;60.08;29.25;;;3.50;99.90;;;;;;5037175;28;20394;-42
2022/11/22 05:48:11;;;;;;;64.97;29.75;;;3.50;99.90;;;;;;5037028;28;20045;-42
2022/11/22 05:50:37;;;;;;;59.92;27.50;;;3.60;99.90;;;;;;5037085;28;20163;-42
2022/11/22 05:53:03;;;;;;;65.18;30.27;;;3.60;99.90;;;;;;5046002;28;20045;-41
2022/11/22 05:55:29;;;;;;;66.13;29.15;;;3.50;99.90;;;;;;5039840;28;20041;-42
2022/11/22 05:57:58;;;;;;;63.28;28.52;;;3.60;99.90;;;;;;5057824;28;20049;-42
2022/11/22 06:00:24;;;;;;;63.38;30.17;;;3.70;99.90;;;;;;5040580;28;20038;-41
2022/11/22 06:02:50;;;;;;;63.65;30.00;;;3.60;99.90;;;;;;5036308;28;20057;-41
2022/11/22 06:05:15;;;;;;;61.60;29.20;;;3.60;99.90;;;;;;5036194;28;20056;-42
2022/11/22 06:07:41;;;;;;;57.08;27.25;;;3.60;99.90;;;;;;5036144;28;20129;-42
2022/11/22 06:10:07;;;;;;;61.88;30.38;;;3.60;99.90;;;;;;5037292;28;20037;-42
2022/11/22 06:12:33;;;;;;;61.92;29.70;;;3.70;99.90;;;;;;5054186;28;20107;-42
2022/11/22 06:14:59;;;;;;;63.85;29.33;;;3.70;99.90;;;;;;5035262;28;20479;-43
2022/11/22 06:17:25;;;;;;;64.30;30.00;;;3.70;99.90;;;;;;5035964;28;20072;-42
2022/11/22 06:19:50;;;;;;;60.35;30.42;;;3.60;99.90;;;;;;5044802;28;20099;-42
2022/11/22 06:22:16;;;;;;;59.60;29.33;;;3.70;99.90;;;;;;5068536;28;20052;-42
2022/11/22 06:24:42;;;;;;;64.32;29.45;;;3.70;99.90;;;;;;5036417;28;20045;-42
2022/11/22 06:27:08;;;;;;;62.92;28.58;;;3.60;99.90;;;;;;5055676;28;20049;-42
2022/11/22 06:29:33;;;;;;;66.22;29.95;;;3.50;99.90;;;;;;5056526;28;20128;-42
2022/11/22 06:31:59;;;;;;;61.75;29.58;;;3.60;99.90;;;;;;5055259;28;20570;-42
2022/11/22 06:34:25;;;;;;;60.30;30.67;;;3.60;99.90;;;;;;5052880;28;20048;-42
2022/11/22 06:36:50;;;;;;;62.72;28.80;;;3.60;99.90;;;;;;5071174;28;20080;-42
2022/11/22 06:39:16;;;;;;;60.47;29.02;;;3.60;99.90;;;;;;5034428;28;20056;-42
2022/11/22 06:41:42;;;;;;;64.88;29.58;;;3.60;99.90;;;;;;5034246;28;20049;-42
2022/11/22 06:44:08;;;;;;;61.17;30.90;;;3.60;99.90;;;;;;5045227;28;20037;-42
2022/11/22 06:46:35;;;;;;;63.97;29.73;;;3.80;99.90;;;;;;5035460;28;20069;-42
2022/11/22 06:49:01;;;;;;;65.45;30.23;;;3.70;99.90;;;;;;5035725;28;20057;-42
2022/11/22 06:51:28;;;;;;;69.45;30.65;;;3.80;99.90;;;;;;5067274;28;20122;-42
2022/11/22 06:53:55;;;;;;;68.88;30.55;;;3.80;99.90;;;;;;5034989;28;20407;-42
2022/11/22 06:56:26;;;;;;;65.35;28.95;;;3.90;99.90;;;;;;5067582;28;20063;-41
2022/11/22 06:58:53;;;;;;;66.50;29.80;;;3.70;99.90;;;;;;5035531;28;20047;-42
2022/11/22 07:01:27;;;;;;;71.70;30.63;;;3.70;99.90;;;;;;5044337;28;20103;-42
2022/11/22 07:03:57;;;;;;;69.75;30.27;;;3.70;99.90;;;;;;5050770;28;20400;-42
2022/11/22 07:06:25;;;;;;;63.10;29.20;;;3.80;99.90;;;;;;5053060;28;20049;-42
2022/11/22 07:08:51;;;;;;;58.65;29.98;;;3.90;99.90;;;;;;5055481;28;20045;-42
2022/11/22 07:11:19;;;;;;;63.03;28.70;;;3.90;99.90;;;;;;5034998;28;20068;-42
2022/11/22 07:13:46;;;;;;;55.75;29.40;;;4.00;99.90;;;;;;5034804;28;20128;-42
2022/11/22 07:16:15;;;;;;;62.20;29.15;;;3.90;99.90;;;;;;5034892;28;20095;-42
2022/11/22 07:18:40;;;;;;;58.53;28.55;;;4.00;99.90;;;;;;5033674;28;20137;-42
2022/11/22 07:21:09;;;;;;;58.47;28.27;;;4.10;99.90;;;;;;5053851;28;20123;-42
2022/11/22 07:23:37;;;;;;;45.38;24.30;;;4.20;99.90;;;;;;5054686;28;20041;-43
2022/11/22 07:26:02;;;;;;;57.63;28.27;;;4.20;99.90;;;;;;5054636;28;20041;-42
2022/11/22 07:28:28;;;;;;;46.25;25.13;;;4.20;99.90;;;;;;5054598;28;20395;-42
2022/11/22 07:30:59;;;;;;;47.10;23.40;;;4.30;99.90;;;;;;5054551;28;20041;-42
2022/11/22 07:33:24;;;;;;;45.22;25.05;;;4.30;99.90;;;;;;5056395;28;20044;-43
2022/11/22 07:35:50;;;;;;;53.05;24.45;;;4.40;99.90;;;;;;5040386;28;20053;-44
2022/11/22 07:38:16;;;;;;;52.95;23.40;;;4.50;99.90;;;;;;5035012;28;20107;-42
2022/11/22 07:40:41;;;;;;;45.40;24.13;;;4.50;99.90;;;;;;5034439;28;20081;-42
2022/11/22 07:43:08;;;;;;;38.85;22.05;;;4.60;99.90;;;;;;5066374;28;20056;-43
2022/11/22 07:45:34;;;;;;;43.03;21.83;;;4.70;99.90;;;;;;5045649;28;20057;-43
2022/11/22 07:48:00;;;;;;;43.97;21.92;;;4.70;99.90;;;;;;5052969;28;20053;-42
2022/11/22 07:50:26;;;;;;;43.97;21.15;;;4.70;99.90;;;;;;5054071;28;20106;-43
2022/11/22 07:52:58;;;;;;;42.53;21.17;;;4.80;99.90;;;;;;5054114;28;20045;-43
2022/11/22 07:55:25;;;;;;;38.38;19.42;;;4.80;99.90;;;;;;5053808;28;20084;-43
2022/11/22 07:57:52;;;;;;;41.45;18.25;;;4.80;99.90;;;;;;5052707;28;20048;-43
2022/11/22 08:00:19;;;;;;;30.65;14.77;;;4.90;99.90;;;;;;5053848;28;20123;-44
2022/11/22 08:02:45;;;;;;;29.27;15.25;;;5.00;99.90;;;;;;5036234;28;20053;-44
2022/11/22 08:05:10;;;;;;;29.17;13.38;;;5.00;99.90;;;;;;5053979;28;20045;-43
2022/11/22 08:07:36;;;;;;;29.52;13.52;;;5.10;99.90;;;;;;5052977;28;20086;-43
2022/11/22 08:10:02;;;;;;;28.67;13.13;;;5.20;99.90;;;;;;5052922;28;20048;-43
2022/11/22 08:12:28;;;;;;;26.02;11.55;;;5.20;99.90;;;;;;5053895;28;20119;-43
2022/11/22 08:14:54;;;;;;;20.90;10.80;;;5.30;99.90;;;;;;5052736;28;20513;-43
2022/11/22 08:17:20;;;;;;;22.17;10.30;;;5.30;99.90;;;;;;5054041;28;20049;-43
2022/11/22 08:19:48;;;;;;;21.75;9.00;;;5.30;99.90;;;;;;5052367;28;20048;-43
2022/11/22 08:22:13;;;;;;;18.08;8.75;;;5.40;99.90;;;;;;5054308;28;20055;-43
2022/11/22 08:24:39;;;;;;;24.23;9.73;;;5.40;99.90;;;;;;5053767;28;20049;-43
2022/11/22 08:27:05;;;;;;;21.05;8.23;;;5.40;99.90;;;;;;5053512;28;20056;-44
2022/11/22 08:29:31;;;;;;;24.63;8.05;;;5.40;99.90;;;;;;5053630;28;20088;-43
2022/11/22 08:31:56;;;;;;;24.00;8.63;;;5.50;99.90;;;;;;5052907;28;20074;-43
2022/11/22 08:34:22;;;;;;;20.85;7.45;;;5.40;99.90;;;;;;5053571;28;20446;-43
2022/11/22 08:36:48;;;;;;;21.45;7.50;;;5.50;99.90;;;;;;5052581;28;20087;-43
2022/11/22 08:39:13;;;;;;;18.33;6.65;;;5.50;99.90;;;;;;5053527;28;20041;-43
2022/11/22 08:41:39;;;;;;;26.60;7.82;;;5.50;99.90;;;;;;5053740;28;20422;-44
2022/11/22 08:44:05;;;;;;;26.35;7.18;;;5.50;99.90;;;;;;5054300;28;20498;-43
2022/11/22 08:46:31;;;;;;;17.38;5.78;;;5.40;99.90;;;;;;5053761;28;20498;-43
2022/11/22 08:48:56;;;;;;;18.13;6.43;;;5.40;99.90;;;;;;5052108;28;20445;-43
2022/11/22 08:51:22;;;;;;;17.67;6.60;;;5.40;99.90;;;;;;5053932;28;20091;-43
2022/11/22 08:53:48;;;;;;;16.63;6.60;;;5.40;99.90;;;;;;5051853;28;20052;-43
2022/11/22 08:56:14;;;;;;;22.10;6.50;;;5.50;99.90;;;;;;5053421;28;20102;-43
2022/11/22 08:58:41;;;;;;;21.40;5.82;;;5.50;99.90;;;;;;5053858;28;20055;-43
2022/11/22 09:01:15;;;;;;;17.48;5.50;;;5.50;99.90;;;;;;5053317;28;20037;-43
2022/11/22 09:03:42;;;;;;;19.00;5.35;;;5.50;99.90;;;;;;5053363;28;20062;-43
2022/11/22 09:06:16;;;;;;;16.38;4.90;;;5.50;99.90;;;;;;5052345;28;20136;-44
2022/11/22 09:08:42;;;;;;;12.13;4.15;;;5.50;99.90;;;;;;5054671;28;20402;-42
2022/11/22 09:11:11;;;;;;;15.65;4.35;;;5.50;99.90;;;;;;5073267;28;20037;-43
2022/11/22 09:13:37;;;;;;;14.35;4.78;;;5.40;99.90;;;;;;5057063;28;20048;-44
2022/11/22 09:16:05;;;;;;;18.60;4.53;;;5.30;99.90;;;;;;5055830;28;20056;-44
2022/11/22 09:18:31;;;;;;;17.38;4.35;;;5.20;99.90;;;;;;5039491;28;20084;-44
2022/11/22 09:21:01;;;;;;;12.70;3.60;;;5.20;99.90;;;;;;5056940;28;20087;-43
2022/11/22 09:23:28;;;;;;;8.77;3.47;;;5.20;99.90;;;;;;5057573;28;20045;-43
2022/11/22 09:26:08;;;;;;;11.40;3.75;;;5.10;99.90;;;;;;5072382;28;20049;-43
2022/11/22 09:28:34;;;;;;;12.20;3.33;;;5.20;99.90;;;;;;5056539;28;20399;-44
2022/11/22 09:31:02;;;;;;;10.88;3.50;;;5.20;99.90;;;;;;5072231;28;20041;-44
2022/11/22 09:33:28;;;;;;;15.13;3.50;;;5.10;99.90;;;;;;5055853;28;20052;-43
2022/11/22 09:36:01;;;;;;;17.17;3.90;;;5.30;99.90;;;;;;5056697;28;20094;-44
2022/11/22 09:38:28;;;;;;;15.70;4.30;;;5.30;99.90;;;;;;5056699;28;20045;-44
2022/11/22 09:40:54;;;;;;;15.52;4.28;;;5.30;99.90;;;;;;5071578;28;20460;-43
2022/11/22 09:43:57;;;;;;;17.20;4.22;;;5.30;99.90;;;;;;5056025;28;20084;-44
2022/11/22 09:46:58;;;;;;;11.20;4.15;;;5.30;99.90;;;;;;5057117;28;20123;-43
2022/11/22 09:49:49;;;;;;;11.13;3.03;;;5.30;99.90;;;;;;5055326;28;20145;-43
2022/11/22 09:52:30;;;;;;;8.10;2.97;;;5.30;99.90;;;;;;5055405;28;20049;-44
2022/11/22 09:54:59;;;;;;;19.50;4.07;;;5.30;99.90;;;;;;5056769;28;20052;-44
2022/11/22 09:57:34;;;;;;;8.13;3.17;;;5.30;99.90;;;;;;5056334;28;20053;-43
2022/11/22 10:00:07;;;;;;;15.43;4.97;;;5.30;99.90;;;;;;5055088;28;20045;-44
2022/11/22 10:02:36;;;;;;;12.75;4.10;;;5.30;99.90;;;;;;5056922;28;20118;-43
2022/11/22 10:05:12;;;;;;;19.85;5.65;;;5.30;99.90;;;;;;5071325;28;20084;-43
2022/11/22 10:07:43;;;;;;;14.45;4.45;;;5.40;99.90;;;;;;5057030;28;20356;-43
2022/11/22 10:10:16;;;;;;;13.70;5.05;;;5.30;99.90;;;;;;5056169;28;20045;-43
2022/11/22 10:12:54;;;;;;;;;;;5.30;99.90;;;;;;5056507;28;20056;-43
2022/11/22 10:15:26;;;;;;;11.32;3.95;;;5.30;99.90;;;;;;5055945;28;19966;-43
2022/11/22 10:17:56;;;;;;;13.75;4.30;;;5.30;99.90;;;;;;5056763;28;20053;-43
2022/11/22 10:20:28;;;;;;;18.92;4.50;;;5.30;99.90;;;;;;5055683;28;20051;-43
2022/11/22 10:22:54;;;;;;;17.30;4.85;;;5.40;99.90;;;;;;5056179;28;20450;-43
2022/11/22 10:25:21;;;;;;;10.70;5.07;;;5.40;99.90;;;;;;5071142;28;20507;-43
2022/11/22 10:27:56;;;;;;;17.23;4.78;;;5.60;99.90;;;;;;5056607;28;20041;-43
2022/11/22 10:30:22;;;;;;;12.60;3.88;;;5.70;99.90;;;;;;5055841;28;20041;-43
2022/11/22 10:33:06;;;;;;;14.88;4.47;;;5.90;99.90;;;;;;5055702;28;20052;-42
2022/11/22 10:35:54;;;;;;;11.05;3.22;;;6.00;99.90;;;;;;5055614;28;20136;-43
2022/11/22 10:38:23;;;;;;;9.40;2.92;;;6.10;99.90;;;;;;5056163;28;20048;-43
2022/11/22 10:40:56;;;;;;;11.13;3.40;;;6.00;99.90;;;;;;5055504;28;20041;-43
2022/11/22 10:43:22;;;;;;;12.07;3.22;;;5.90;99.90;;;;;;5056099;28;20047;-42
2022/11/22 10:46:05;;;;;;;19.23;7.95;;;5.90;99.90;;;;;;5055939;28;20457;-42
2022/11/22 10:48:37;;;;;;;;;;;6.00;99.90;;;;;;5055946;28;20056;-43
2022/11/22 10:51:24;;;;;;;13.90;4.22;;;6.10;99.90;;;;;;5055386;28;19950;-42
2022/11/22 10:54:18;;;;;;;13.60;4.32;;;6.20;99.90;;;;;;5055387;28;20091;-43
2022/11/22 10:56:45;;;;;;;15.10;3.20;;;6.30;99.90;;;;;;5055135;28;20063;-42
2022/11/22 10:59:20;;;;;;;16.15;4.10;;;6.40;99.90;;;;;;5055149;28;20055;-43
2022/11/22 11:02:04;;;;;;;9.23;3.00;;;6.40;99.90;;;;;;5055117;28;20045;-43
2022/11/22 11:04:36;;;;;;;17.00;3.63;;;6.40;99.90;;;;;;5054964;28;20048;-43
2022/11/22 11:07:04;;;;;;;19.88;6.25;;;6.40;99.90;;;;;;5053796;28;20053;-43
2022/11/22 11:09:49;;;;;;;13.75;4.75;;;6.30;99.90;;;;;;5055017;28;20045;-43
2022/11/22 11:12:42;;;;;;;18.13;9.50;;;6.30;99.90;;;;;;5054083;28;20399;-43
2022/11/22 11:15:31;;;;;;;18.60;11.93;;;6.20;99.90;;;;;;5055436;28;20454;-43
2022/11/22 11:18:16;;;;;;;14.40;6.22;;;6.20;99.90;;;;;;5054459;28;20496;-42
2022/11/22 11:20:42;;;;;;;15.60;7.28;;;6.20;99.90;;;;;;5055303;28;20091;-43
2022/11/22 11:23:11;;;;;;;7.65;3.03;;;6.20;99.90;;;;;;5053752;28;20498;-43
2022/11/22 11:25:42;;;;;;;7.07;2.08;;;6.30;99.90;;;;;;5055479;28;20068;-43
2022/11/22 11:28:08;;;;;;;6.10;2.03;;;6.20;99.90;;;;;;5055218;28;20053;-42
2022/11/22 11:30:40;;;;;;;10.98;2.60;;;6.20;99.90;;;;;;5053584;28;20048;-42
2022/11/22 11:33:30;;;;;;;7.45;2.13;;;6.20;99.90;;;;;;5055118;28;20087;-42
2022/11/22 11:36:06;;;;;;;11.93;2.30;;;6.30;99.90;;;;;;5054600;28;20063;-42
2022/11/22 11:38:34;;;;;;;11.40;2.67;;;6.40;99.90;;;;;;5055343;28;20053;-42
2022/11/22 11:41:20;;;;;;;10.02;2.40;;;6.50;99.90;;;;;;5054344;28;20045;-42
2022/11/22 11:43:47;;;;;;;10.57;1.98;;;6.70;99.90;;;;;;5054325;28;20047;-41
2022/11/22 11:46:22;;;;;;;5.55;1.45;;;6.80;99.90;;;;;;5055145;28;20049;-42
2022/11/22 11:48:50;;;;;;;9.90;2.00;;;6.90;99.90;;;;;;5053293;28;20076;-42
2022/11/22 11:51:36;;;;;;;10.35;2.22;;;7.10;99.90;;;;;;5054488;28;20055;-42
2022/11/22 11:54:27;;;;;;;7.88;2.17;;;7.20;99.90;;;;;;5054236;28;20123;-42
2022/11/22 11:57:03;;;;;;;6.10;1.67;;;7.30;99.90;;;;;;5087344;28;20060;-42
2022/11/22 11:59:45;;;;;;;8.88;2.65;;;7.30;99.90;;;;;;5054382;28;20076;-42
2022/11/22 12:02:20;;;;;;;10.57;2.17;;;7.40;99.90;;;;;;5054676;28;20084;-42
2022/11/22 12:04:55;;;;;;;6.70;1.90;;;7.50;1.00;;;;;;5052522;28;20513;-42
2022/11/22 12:07:32;;;;;;;7.72;2.13;;;7.60;34.80;;;;;;5053972;28;20131;-41
2022/11/22 12:09:58;;;;;;;15.35;5.82;;;7.60;1.00;;;;;;5053553;28;20077;-42
2022/11/22 12:12:48;;;;;;;7.45;2.63;;;7.60;1.00;;;;;;5054163;28;20045;-42
2022/11/22 12:15:31;;;;;;;15.63;4.93;;;7.30;1.00;;;;;;5054306;28;20052;-41
2022/11/22 12:18:30;;;;;;;14.23;5.70;;;7.20;1.00;;;;;;5053859;28;20041;-41
2022/11/22 12:21:25;;;;;;;9.05;3.70;;;7.10;99.90;;;;;;5053695;28;20041;-41
2022/11/22 12:24:08;;;;;;;8.75;1.85;;;7.10;99.90;;;;;;5052857;28;20064;-40
2022/11/22 12:26:34;;;;;;;8.52;2.33;;;7.00;99.90;;;;;;5054552;28;20457;-40
2022/11/22 12:29:00;;;;;;;11.65;2.72;;;7.00;99.90;;;;;;5052719;28;20132;-40
2022/11/22 12:31:40;;;;;;;8.10;3.50;;;7.00;99.90;;;;;;5053879;28;20095;-41
2022/11/22 12:34:26;;;;;;;11.15;5.13;;;6.90;99.90;;;;;;5054246;28;20126;-40
2022/11/22 12:37:02;;;;;;;6.07;1.65;;;6.90;99.90;;;;;;5053951;28;20049;-42
2022/11/22 12:39:29;;;;;;;7.85;2.00;;;6.80;99.90;;;;;;5053579;28;20044;-40
2022/11/22 12:42:23;;;;;;;7.68;1.65;;;6.80;99.90;;;;;;5053943;28;20045;-39
2022/11/22 12:45:18;;;;;;;12.18;1.98;;;6.80;86.10;;;;;;5061059;28;20064;-39
2022/11/22 12:47:46;;;;;;;5.63;1.27;;;6.80;99.90;;;;;;5060046;28;20055;-41
2022/11/22 12:50:29;;;;;;;7.10;1.48;;;6.90;99.90;;;;;;5060670;28;20057;-40
2022/11/22 12:53:08;;;;;;;6.10;1.52;;;6.80;99.90;;;;;;5060920;28;20045;-41
2022/11/22 12:56:07;;;;;;;10.23;2.22;;;6.80;99.90;;;;;;5060039;28;20499;-39
2022/11/22 12:58:40;;;;;;;11.48;1.65;;;6.70;99.90;;;;;;5058871;28;20049;-38
2022/11/22 13:01:18;;;;;;;8.95;1.40;;;6.70;99.90;;;;;;5060009;28;20128;-38
2022/11/22 13:03:53;;;;;;;8.13;1.70;;;6.70;93.20;;;;;;5059955;28;20049;-37
2022/11/22 13:06:23;;;;;;;7.45;2.17;;;6.80;99.90;;;;;;5075466;28;20102;-39
2022/11/22 13:08:54;;;;;;;9.07;1.48;;;6.90;99.90;;;;;;5059991;28;20049;-38